createdAt,value
2023-05-13T00:01:38.915Z,14.53
2023-05-13T00:04:07.422Z,15.30
2023-05-13T00:06:35.916Z,13.90
2023-05-13T00:09:04.380Z,13.17
2023-05-13T00:11:33.884Z,12.77
2023-05-13T00:14:02.064Z,12.67
2023-05-13T00:16:30.306Z,12.30
2023-05-13T00:18:58.503Z,12.03
2023-05-13T00:21:26.614Z,16.10
2023-05-13T00:23:54.749Z,12.23
2023-05-13T00:26:22.947Z,11.77
2023-05-13T00:28:52.456Z,11.87
2023-05-13T00:31:20.846Z,12.50
2023-05-13T00:33:49.067Z,10.57
2023-05-13T00:36:17.419Z,10.87
2023-05-13T00:38:45.517Z,9.95
2023-05-13T00:41:13.896Z,10.70
2023-05-13T00:43:42.083Z,12.63
2023-05-13T00:46:11.645Z,10.77
2023-05-13T00:48:40.260Z,12.33
2023-05-13T00:51:08.604Z,10.80
2023-05-13T00:53:36.786Z,11.30
2023-05-13T00:56:05.073Z,11.00
2023-05-13T00:58:33.309Z,10.50
2023-05-13T01:01:06.961Z,11.43
2023-05-13T01:03:40.773Z,11.37
2023-05-13T01:06:11.032Z,10.67
2023-05-13T01:08:42.992Z,10.53
2023-05-13T01:11:13.113Z,10.43
2023-05-13T01:13:43.583Z,9.70
2023-05-13T01:16:14.654Z,10.83
2023-05-13T01:18:46.032Z,10.15
2023-05-13T01:21:14.324Z,9.57
2023-05-13T01:23:43.837Z,12.50
2023-05-13T01:26:11.979Z,8.90
2023-05-13T01:28:40.260Z,9.47
2023-05-13T01:31:10.859Z,10.53
2023-05-13T01:33:39.726Z,7.90
2023-05-13T01:36:08.642Z,8.40
2023-05-13T01:38:37.441Z,8.83
2023-05-13T01:41:07.284Z,8.00
2023-05-13T01:43:35.475Z,9.97
2023-05-13T01:46:03.806Z,10.93
2023-05-13T01:48:31.935Z,7.87
2023-05-13T01:51:00.152Z,10.13
2023-05-13T01:53:28.303Z,6.87
2023-05-13T01:55:56.730Z,6.60
2023-05-13T01:58:26.208Z,6.50
2023-05-13T02:00:54.400Z,8.17
2023-05-13T02:03:22.709Z,7.20
2023-05-13T02:05:50.949Z,7.00
2023-05-13T02:08:19.211Z,7.40
2023-05-13T02:10:47.608Z,8.87
2023-05-13T02:13:15.809Z,7.87
2023-05-13T02:15:45.314Z,7.73
2023-05-13T02:18:13.556Z,9.87
2023-05-13T02:20:41.724Z,7.53
2023-05-13T02:23:09.920Z,9.83
2023-05-13T02:25:38.088Z,8.17
2023-05-13T02:28:06.453Z,9.30
2023-05-13T02:30:34.622Z,10.27
2023-05-13T02:33:04.422Z,8.47
2023-05-13T02:35:32.572Z,9.50
2023-05-13T02:38:00.688Z,9.87
2023-05-13T02:40:28.871Z,9.57
2023-05-13T02:42:57.040Z,12.10
2023-05-13T02:45:25.442Z,10.13
2023-05-13T02:47:53.635Z,13.07
2023-05-13T02:50:23.478Z,9.80
2023-05-13T02:52:51.843Z,12.40
2023-05-13T02:55:20.194Z,12.30
2023-05-13T02:57:48.376Z,14.07
2023-05-13T03:00:17.133Z,12.60
2023-05-13T03:02:45.337Z,10.00
2023-05-13T03:05:13.615Z,10.33
2023-05-13T03:07:43.306Z,11.30
2023-05-13T03:10:11.631Z,10.40
2023-05-13T03:12:39.770Z,13.43
2023-05-13T03:15:08.486Z,10.63
2023-05-13T03:17:36.706Z,13.00
2023-05-13T03:20:05.126Z,14.57
2023-05-13T03:22:33.360Z,12.83
2023-05-13T03:25:04.657Z,16.50
2023-05-13T03:27:32.844Z,16.33
2023-05-13T03:30:01.036Z,14.27
2023-05-13T03:32:30.601Z,16.50
2023-05-13T03:35:00.755Z,16.50
2023-05-13T03:37:28.950Z,15.57
2023-05-13T03:39:57.088Z,17.23
2023-05-13T03:42:26.666Z,17.47
2023-05-13T03:44:56.911Z,17.93
2023-05-13T03:47:25.294Z,23.03
2023-05-13T03:49:53.497Z,16.47
2023-05-13T03:52:21.630Z,20.93
2023-05-13T03:54:49.771Z,16.77
2023-05-13T03:57:17.916Z,18.90
2023-05-13T03:59:47.466Z,21.47
2023-05-13T04:02:15.626Z,21.47
2023-05-13T04:04:43.848Z,20.03
2023-05-13T04:07:12.024Z,21.80
2023-05-13T04:09:40.663Z,23.93
2023-05-13T04:12:08.996Z,24.77
2023-05-13T04:14:37.561Z,25.77
2023-05-13T04:17:07.435Z,19.23
2023-05-13T04:19:35.741Z,25.97
2023-05-13T04:22:03.903Z,21.83
2023-05-13T04:24:32.030Z,25.37
2023-05-13T04:27:01.480Z,22.50
2023-05-13T04:29:29.793Z,22.07
2023-05-13T04:31:58.035Z,25.40
2023-05-13T04:34:27.615Z,23.57
2023-05-13T04:36:55.796Z,24.97
2023-05-13T04:39:24.004Z,20.80
2023-05-13T04:41:52.189Z,20.90
2023-05-13T04:44:20.352Z,22.60
2023-05-13T04:46:48.640Z,21.60
2023-05-13T04:49:16.943Z,23.97
2023-05-13T04:51:46.952Z,26.07
2023-05-13T04:54:15.691Z,24.87
2023-05-13T04:56:43.894Z,26.70
2023-05-13T04:59:12.071Z,25.43
2023-05-13T05:01:40.283Z,22.07
2023-05-13T05:04:08.593Z,23.77
2023-05-13T05:06:36.812Z,22.20
2023-05-13T05:09:06.796Z,19.53
2023-05-13T05:11:34.943Z,21.87
2023-05-13T05:14:03.189Z,21.63
2023-05-13T05:16:31.350Z,19.93
2023-05-13T05:18:59.545Z,18.93
2023-05-13T05:21:27.879Z,23.23
2023-05-13T05:23:56.855Z,22.27
2023-05-13T05:26:26.738Z,20.33
2023-05-13T05:28:55.073Z,21.87
2023-05-13T05:31:23.238Z,24.07
2023-05-13T05:33:51.514Z,23.27
2023-05-13T05:36:19.741Z,24.07
2023-05-13T05:38:48.002Z,21.70
2023-05-13T05:41:16.228Z,22.57
2023-05-13T05:43:45.852Z,22.13
2023-05-13T05:46:14.095Z,18.83
2023-05-13T05:48:42.314Z,19.70
2023-05-13T05:51:10.529Z,20.57
2023-05-13T05:53:41.022Z,19.30
2023-05-13T05:56:09.753Z,20.17
2023-05-13T05:58:38.005Z,18.53
2023-05-13T06:01:08.031Z,20.00
2023-05-13T06:03:36.345Z,20.80
2023-05-13T06:06:04.920Z,19.27
2023-05-13T06:08:33.112Z,16.17
2023-05-13T06:11:01.362Z,17.50
2023-05-13T06:13:29.619Z,15.50
2023-05-13T06:15:57.873Z,20.40
2023-05-13T06:18:27.556Z,18.77
2023-05-13T06:20:55.759Z,16.60
2023-05-13T06:23:23.942Z,18.57
2023-05-13T06:25:52.140Z,13.53
2023-05-13T06:28:20.656Z,14.00
2023-05-13T06:30:49.002Z,14.87
2023-05-13T06:33:17.223Z,16.63
2023-05-13T06:35:49.457Z,14.20
2023-05-13T06:38:18.607Z,15.83
2023-05-13T06:40:46.926Z,17.83
2023-05-13T06:43:16.379Z,16.50
2023-05-13T06:45:44.570Z,13.57
2023-05-13T06:48:12.996Z,12.83
2023-05-13T06:50:41.580Z,15.00
2023-05-13T06:53:12.557Z,12.87
2023-05-13T06:55:42.593Z,11.47
2023-05-13T06:58:11.066Z,14.93
2023-05-13T07:00:39.819Z,11.47
2023-05-13T07:03:08.552Z,12.60
2023-05-13T07:05:37.431Z,10.93
2023-05-13T07:08:06.917Z,15.20
2023-05-13T07:10:36.844Z,13.13
2023-05-13T07:13:05.057Z,11.43
2023-05-13T07:15:33.217Z,11.77
2023-05-13T07:18:01.489Z,14.33
2023-05-13T07:20:30.362Z,14.77
2023-05-13T07:22:58.667Z,14.50
2023-05-13T07:25:26.896Z,15.40
2023-05-13T07:27:56.427Z,14.17
2023-05-13T07:30:24.900Z,18.90
2023-05-13T07:32:54.086Z,13.13
2023-05-13T07:35:22.548Z,17.23
2023-05-13T07:37:50.949Z,15.60
2023-05-13T07:40:20.949Z,13.90
2023-05-13T07:42:49.557Z,17.63
2023-05-13T07:45:19.379Z,14.43
2023-05-13T07:47:47.677Z,12.50
2023-05-13T07:50:15.959Z,12.97
2023-05-13T07:52:44.355Z,14.53
2023-05-13T07:55:12.518Z,14.13
2023-05-13T07:57:40.795Z,12.97
2023-05-13T08:00:09.630Z,11.30
2023-05-13T08:02:40.150Z,11.53
2023-05-13T08:05:08.721Z,11.50
2023-05-13T08:07:37.084Z,11.97
2023-05-13T08:10:05.512Z,11.83
2023-05-13T08:12:33.716Z,12.40
2023-05-13T08:15:03.830Z,12.83
2023-05-13T08:17:32.118Z,11.90
2023-05-13T08:20:03.774Z,15.00
2023-05-13T08:22:32.219Z,12.60
2023-05-13T08:25:01.174Z,15.47
2023-05-13T08:27:29.380Z,9.83
2023-05-13T08:29:57.559Z,10.70
2023-05-13T08:32:25.803Z,13.23
2023-05-13T08:34:54.133Z,8.93
2023-05-13T08:37:23.642Z,12.10
2023-05-13T08:39:51.762Z,14.47
2023-05-13T08:42:22.876Z,12.03
2023-05-13T08:44:51.041Z,12.00
2023-05-13T08:47:26.229Z,14.30
2023-05-13T08:49:54.615Z,12.00
2023-05-13T08:52:24.300Z,15.53
2023-05-13T08:54:52.449Z,15.13
2023-05-13T08:57:20.769Z,11.60
2023-05-13T08:59:48.940Z,15.03
2023-05-13T09:02:17.244Z,10.63
2023-05-13T09:04:46.688Z,15.43
2023-05-13T09:07:14.916Z,11.23
2023-05-13T09:09:44.521Z,16.47
2023-05-13T09:12:12.851Z,13.20
2023-05-13T09:14:41.008Z,10.67
2023-05-13T09:17:10.320Z,9.85
2023-05-13T09:19:38.599Z,12.93
2023-05-13T09:22:06.847Z,13.37
2023-05-13T09:24:35.039Z,17.80
2023-05-13T09:27:04.548Z,14.03
2023-05-13T09:29:33.315Z,18.38
2023-05-13T09:32:03.061Z,13.15
2023-05-13T09:34:32.105Z,10.80
2023-05-13T09:37:01.415Z,17.47
2023-05-13T09:39:31.036Z,11.85
2023-05-13T09:42:04.297Z,16.50
2023-05-13T09:44:35.050Z,12.90
2023-05-13T09:47:03.625Z,12.43
2023-05-13T09:49:33.208Z,13.95
2023-05-13T09:52:01.383Z,16.70
2023-05-13T09:54:36.052Z,19.07
2023-05-13T09:57:04.668Z,13.07
2023-05-13T09:59:35.173Z,11.45
2023-05-13T10:02:05.945Z,15.10
2023-05-13T10:04:34.427Z,12.63
2023-05-13T10:07:04.183Z,12.77
2023-05-13T10:09:36.389Z,12.03
2023-05-13T10:12:04.980Z,11.77
2023-05-13T10:14:34.680Z,16.63
2023-05-13T10:17:02.874Z,23.60
2023-05-13T10:19:31.186Z,14.60
2023-05-13T10:21:59.833Z,13.48
2023-05-13T10:24:28.968Z,16.83
2023-05-13T10:26:58.065Z,13.50
2023-05-13T10:29:26.606Z,12.30
2023-05-13T10:31:57.494Z,16.03
2023-05-13T10:34:26.325Z,12.98
2023-05-13T10:37:01.791Z,15.33
2023-05-13T10:39:38.929Z,13.20
2023-05-13T10:42:28.847Z,19.30
2023-05-13T10:44:57.124Z,12.15
2023-05-13T10:47:27.067Z,17.15
2023-05-13T10:49:55.344Z,14.70
2023-05-13T10:52:23.564Z,13.10
2023-05-13T10:55:01.629Z,13.95
2023-05-13T10:57:30.983Z,16.58
2023-05-13T11:00:14.305Z,12.90
2023-05-13T11:02:44.089Z,15.85
2023-05-13T11:05:20.651Z,12.43
2023-05-13T11:07:56.300Z,11.40
2023-05-13T11:10:29.949Z,14.30
2023-05-13T11:13:16.644Z,13.13
2023-05-13T11:15:46.031Z,13.05
2023-05-13T11:18:15.642Z,16.02
2023-05-13T11:20:52.570Z,17.77
2023-05-13T11:23:21.645Z,12.88
2023-05-13T11:26:12.179Z,11.40
2023-05-13T11:28:57.619Z,11.88
2023-05-13T11:31:26.153Z,11.35
2023-05-13T11:34:15.111Z,14.68
2023-05-13T11:36:46.192Z,13.82
2023-05-13T11:39:16.666Z,12.70
2023-05-13T11:41:46.580Z,12.02
2023-05-13T11:44:15.445Z,11.63
2023-05-13T11:46:53.418Z,9.73
2023-05-13T11:49:45.354Z,10.35
2023-05-13T11:52:15.615Z,11.60
2023-05-13T11:54:44.525Z,12.82
2023-05-13T11:57:16.639Z,13.43
2023-05-13T11:59:50.925Z,9.20
2023-05-13T12:02:22.095Z,11.82
2023-05-13T12:04:50.339Z,15.95
2023-05-13T12:07:22.675Z,11.95
2023-05-13T12:09:51.211Z,12.55
2023-05-13T12:12:20.337Z,11.55
2023-05-13T12:14:50.277Z,10.70
2023-05-13T12:17:19.153Z,12.50
2023-05-13T12:20:06.423Z,15.73
2023-05-13T12:22:36.466Z,9.63
2023-05-13T12:25:24.770Z,14.32
2023-05-13T12:27:53.521Z,12.98
2023-05-13T12:30:21.689Z,13.20
2023-05-13T12:32:49.881Z,9.90
2023-05-13T12:35:18.179Z,10.80
2023-05-13T12:37:59.820Z,14.20
2023-05-13T12:40:28.302Z,12.45
2023-05-13T12:42:58.801Z,11.05
2023-05-13T12:45:31.335Z,11.40
2023-05-13T12:47:59.945Z,14.02
2023-05-13T12:50:28.963Z,13.20
2023-05-13T12:52:59.991Z,8.60
2023-05-13T12:55:28.295Z,11.88
2023-05-13T12:57:57.443Z,11.23
2023-05-13T13:00:26.533Z,15.30
2023-05-13T13:02:54.917Z,11.30
2023-05-13T13:05:23.592Z,8.50
2023-05-13T13:07:52.004Z,9.77
2023-05-13T13:10:22.672Z,12.95
2023-05-13T13:12:50.980Z,8.43
2023-05-13T13:15:19.490Z,13.02
2023-05-13T13:17:47.783Z,13.85
2023-05-13T13:20:16.029Z,10.85
2023-05-13T13:22:44.237Z,12.80
2023-05-13T13:25:12.434Z,11.27
2023-05-13T13:27:41.989Z,11.90
2023-05-13T13:30:10.507Z,12.27
2023-05-13T13:32:38.687Z,18.20
2023-05-13T13:35:07.175Z,11.57
2023-05-13T13:37:36.177Z,11.57
2023-05-13T13:40:05.744Z,13.82
2023-05-13T13:45:11.310Z,10.45
2023-05-13T13:47:39.558Z,12.80
2023-05-13T13:50:08.306Z,14.25
2023-05-13T13:52:36.528Z,10.25
2023-05-13T13:55:04.697Z,11.40
2023-05-13T13:57:32.856Z,10.10
2023-05-13T14:00:01.152Z,10.88
2023-05-13T14:02:30.747Z,11.07
2023-05-13T14:04:58.996Z,12.30
2023-05-13T14:07:27.323Z,11.60
2023-05-13T14:09:55.499Z,12.40
2023-05-13T14:12:23.696Z,12.10
2023-05-13T14:14:51.825Z,12.68
2023-05-13T14:17:20.907Z,12.73
2023-05-13T14:19:51.763Z,10.35
2023-05-13T14:22:21.625Z,13.27
2023-05-13T14:24:49.737Z,12.32
2023-05-13T14:27:17.931Z,10.52
2023-05-13T14:29:47.115Z,10.45
2023-05-13T14:32:15.370Z,12.85
2023-05-13T14:34:43.540Z,10.43
2023-05-13T14:37:13.120Z,12.50
2023-05-13T14:39:41.306Z,12.63
2023-05-13T14:42:11.499Z,11.38
2023-05-13T14:44:41.311Z,12.85
2023-05-13T14:47:10.108Z,11.30
2023-05-13T14:49:38.442Z,13.05
2023-05-13T14:52:06.878Z,11.40
2023-05-13T14:54:37.895Z,15.07
2023-05-13T14:57:07.317Z,17.15
2023-05-13T14:59:35.749Z,10.77
2023-05-13T15:02:04.452Z,15.02
2023-05-13T15:04:32.629Z,11.52
2023-05-13T15:07:00.902Z,12.43
2023-05-13T15:09:29.013Z,10.63
2023-05-13T15:11:58.605Z,12.00
2023-05-13T15:14:26.772Z,12.20
2023-05-13T15:16:54.976Z,12.55
2023-05-13T15:19:23.199Z,12.75
2023-05-13T15:21:51.502Z,12.85
2023-05-13T15:24:19.781Z,14.75
2023-05-13T15:26:50.128Z,12.82
2023-05-13T15:29:19.721Z,11.80
2023-05-13T15:31:50.851Z,19.38
2023-05-13T15:34:19.005Z,15.45
2023-05-13T15:36:47.292Z,15.93
2023-05-13T15:39:16.474Z,10.95
2023-05-13T15:41:44.955Z,10.93
2023-05-13T15:44:13.114Z,10.32
2023-05-13T15:46:43.070Z,12.70
2023-05-13T15:49:11.444Z,11.38
2023-05-13T15:51:39.664Z,11.60
2023-05-13T15:54:07.854Z,13.90
2023-05-13T15:56:36.159Z,12.35
2023-05-13T15:59:04.373Z,13.55
2023-05-13T16:01:32.638Z,11.02
2023-05-13T16:04:02.234Z,11.48
2023-05-13T16:06:30.862Z,14.32
2023-05-13T16:09:00.883Z,12.38
2023-05-13T16:11:29.526Z,9.88
2023-05-13T16:13:57.710Z,15.90
2023-05-13T16:16:25.977Z,13.48
2023-05-13T16:18:54.293Z,13.20
2023-05-13T16:21:24.135Z,15.07
2023-05-13T16:23:52.319Z,14.45
2023-05-13T16:26:21.423Z,15.45
2023-05-13T16:28:49.651Z,14.38
2023-05-13T16:31:17.850Z,13.10
2023-05-13T16:33:46.116Z,13.52
2023-05-13T16:36:14.548Z,10.75
2023-05-13T16:38:44.118Z,10.93
2023-05-13T16:41:12.397Z,13.30
2023-05-13T16:43:40.878Z,16.70
2023-05-13T16:46:09.031Z,13.27
2023-05-13T16:48:37.261Z,14.93
2023-05-13T16:51:05.649Z,10.02
2023-05-13T16:53:34.093Z,12.30
2023-05-13T16:56:03.734Z,13.65
2023-05-13T16:58:31.949Z,11.52
2023-05-13T17:01:01.009Z,13.05
2023-05-13T17:03:29.413Z,15.80
2023-05-13T17:05:57.901Z,13.07
2023-05-13T17:08:26.064Z,15.32
2023-05-13T17:10:54.227Z,14.10
2023-05-13T17:13:23.692Z,14.95
2023-05-13T17:15:51.914Z,17.90
2023-05-13T17:18:20.066Z,19.77
2023-05-13T17:20:48.248Z,13.50
2023-05-13T17:23:17.277Z,17.83
2023-05-13T17:25:45.574Z,16.13
2023-05-13T17:28:13.726Z,15.35
2023-05-13T17:30:43.320Z,11.90
2023-05-13T17:33:11.557Z,17.02
2023-05-13T17:35:39.821Z,14.38
2023-05-13T17:38:07.999Z,13.30
2023-05-13T17:40:36.491Z,15.73
2023-05-13T17:43:04.719Z,12.77
2023-05-13T17:45:32.999Z,18.88
2023-05-13T17:48:02.780Z,12.85
2023-05-13T17:50:32.048Z,14.02
2023-05-13T17:53:00.727Z,11.25
2023-05-13T17:55:28.930Z,12.88
2023-05-13T17:57:57.065Z,12.98
2023-05-13T18:00:25.932Z,15.32
2023-05-13T18:02:54.188Z,16.08
2023-05-13T18:05:24.025Z,16.48
2023-05-13T18:07:52.365Z,16.00
2023-05-13T18:10:20.865Z,16.60
2023-05-13T18:12:51.645Z,16.80
2023-05-13T18:15:19.973Z,16.63
2023-05-13T18:17:48.358Z,17.15
2023-05-13T18:20:16.570Z,23.00
2023-05-13T18:22:46.085Z,14.30
2023-05-13T18:25:14.274Z,15.32
2023-05-13T18:27:42.470Z,18.08
2023-05-13T18:30:11.174Z,16.38
2023-05-13T18:32:39.390Z,15.10
2023-05-13T18:35:07.806Z,19.33
2023-05-13T18:37:36.041Z,19.48
2023-05-13T18:40:06.018Z,20.65
2023-05-13T18:42:34.366Z,18.75
2023-05-13T18:45:02.519Z,19.38
2023-05-13T18:47:30.737Z,13.88
2023-05-13T18:49:58.905Z,19.95
2023-05-13T18:52:27.137Z,15.25
2023-05-13T18:54:55.358Z,18.05
2023-05-13T18:57:24.913Z,16.40
2023-05-13T18:59:53.167Z,16.67
2023-05-13T19:02:21.691Z,20.10
2023-05-13T19:04:49.943Z,16.10
2023-05-13T19:07:18.148Z,20.55
2023-05-13T19:09:47.885Z,14.88
2023-05-13T19:12:16.099Z,14.85
2023-05-13T19:14:45.557Z,16.83
2023-05-13T19:17:13.989Z,19.17
2023-05-13T19:19:43.033Z,17.83
2023-05-13T19:22:11.199Z,23.60
2023-05-13T19:24:39.363Z,18.95
2023-05-13T19:27:07.586Z,15.45
2023-05-13T19:29:35.905Z,18.17
2023-05-13T19:32:06.190Z,21.40
2023-05-13T19:34:34.401Z,19.43
2023-05-13T19:37:02.584Z,17.52
2023-05-13T19:39:30.811Z,15.17
2023-05-13T19:41:59.004Z,18.73
2023-05-13T19:44:28.527Z,19.13
2023-05-13T19:46:56.820Z,19.33
2023-05-13T19:49:26.357Z,22.30
2023-05-13T19:51:54.630Z,20.57
2023-05-13T19:54:22.839Z,18.07
2023-05-13T19:56:50.987Z,18.10
2023-05-13T19:59:19.156Z,17.70
2023-05-13T20:01:47.354Z,15.50
2023-05-13T20:04:16.417Z,18.70
2023-05-13T20:06:46.008Z,17.83
2023-05-13T20:09:14.490Z,18.80
2023-05-13T20:11:42.640Z,18.03
2023-05-13T20:14:12.282Z,20.00
2023-05-13T20:16:40.654Z,17.30
2023-05-13T20:19:09.758Z,22.27
2023-05-13T20:21:38.146Z,19.23
2023-05-13T20:24:08.619Z,17.33
2023-05-13T20:26:36.838Z,20.63
2023-05-13T20:29:05.557Z,19.37
2023-05-13T20:31:33.805Z,19.83
2023-05-13T20:34:03.281Z,20.70
2023-05-13T20:36:32.578Z,19.50
2023-05-13T20:39:00.791Z,21.63
2023-05-13T20:41:30.299Z,20.80
2023-05-13T20:43:58.497Z,22.07
2023-05-13T20:46:26.739Z,25.43
2023-05-13T20:48:54.969Z,21.43
2023-05-13T20:51:23.250Z,23.30
2023-05-13T20:53:51.509Z,18.90
2023-05-13T20:56:19.701Z,20.83
2023-05-13T20:58:49.234Z,24.27
2023-05-13T21:01:17.430Z,24.63
2023-05-13T21:03:46.249Z,26.73
2023-05-13T21:06:14.986Z,23.93
2023-05-13T21:08:44.161Z,23.03
2023-05-13T21:11:12.371Z,19.93
2023-05-13T21:13:40.535Z,19.87
2023-05-13T21:16:10.243Z,23.37
2023-05-13T21:18:38.560Z,25.07
2023-05-13T21:21:08.661Z,19.67
2023-05-13T21:23:37.084Z,22.37
2023-05-13T21:26:06.330Z,21.97
2023-05-13T21:28:34.545Z,22.07
2023-05-13T21:31:02.844Z,21.60
2023-05-13T21:33:32.518Z,22.53
2023-05-13T21:36:00.742Z,20.07
2023-05-13T21:38:29.019Z,19.70
2023-05-13T21:40:57.231Z,23.20
2023-05-13T21:43:25.399Z,24.50
2023-05-13T21:45:53.538Z,21.80
2023-05-13T21:48:21.742Z,20.67
2023-05-13T21:50:51.265Z,22.83
2023-05-13T21:53:19.535Z,21.17
2023-05-13T21:55:47.665Z,21.27
2023-05-13T21:58:16.355Z,25.47
2023-05-13T22:00:44.598Z,23.63
2023-05-13T22:03:12.822Z,25.17
2023-05-13T22:05:44.084Z,23.40
2023-05-13T22:08:13.929Z,23.27
2023-05-13T22:10:42.022Z,25.60
2023-05-13T22:13:10.250Z,26.63
2023-05-13T22:15:38.448Z,22.00
2023-05-13T22:18:06.748Z,24.30
2023-05-13T22:20:35.040Z,28.70
2023-05-13T22:23:03.242Z,23.03
2023-05-13T22:25:32.903Z,26.07
2023-05-13T22:28:01.120Z,23.37
2023-05-13T22:30:29.370Z,23.63
2023-05-13T22:32:57.591Z,24.53
2023-05-13T22:35:25.777Z,27.83
2023-05-13T22:37:53.877Z,24.03
2023-05-13T22:40:22.365Z,22.43
2023-05-13T22:42:52.068Z,25.20
2023-05-13T22:45:20.289Z,22.37
2023-05-13T22:47:49.211Z,23.80
2023-05-13T22:50:17.417Z,22.87
2023-05-13T22:52:45.548Z,26.40
2023-05-13T22:55:13.779Z,22.43
2023-05-13T22:57:42.035Z,27.10
2023-05-13T23:00:12.663Z,22.70
2023-05-13T23:02:40.872Z,21.77
2023-05-13T23:05:10.005Z,22.70
2023-05-13T23:07:38.204Z,26.27
2023-05-13T23:10:06.959Z,23.47
2023-05-13T23:12:35.135Z,20.27
2023-05-13T23:15:04.045Z,24.47
2023-05-13T23:17:33.671Z,21.90
2023-05-13T23:20:02.018Z,22.77
2023-05-13T23:22:30.256Z,21.07
2023-05-13T23:24:58.424Z,20.53
2023-05-13T23:27:26.638Z,24.27
2023-05-13T23:29:54.814Z,22.80
2023-05-13T23:32:22.984Z,24.60
2023-05-13T23:34:52.647Z,20.03
2023-05-13T23:37:21.871Z,20.03
2023-05-13T23:39:50.152Z,21.80
2023-05-13T23:42:18.446Z,22.57
2023-05-13T23:44:46.616Z,22.83
2023-05-13T23:47:14.741Z,21.77
2023-05-13T23:49:42.899Z,23.27
2023-05-13T23:52:12.385Z,23.10
2023-05-13T23:54:40.548Z,24.37
2023-05-13T23:57:08.724Z,21.83
2023-05-13T23:59:36.940Z,20.27
